This is the latest recevied weather packets stored in our database for station/object F4CYQ-10. If no packets are shown the sender has not sent any weather packets the latest 10 day(s).
| Time | Temp. | Humidity | Pressure | Rain* | Wind** | Luminosity | Snow |
|---|---|---|---|---|---|---|---|
| 1777935968 | 17.78° C | 60% | 1015.8 hPa | - | - | - | - |
| 1777935067 | 18.33° C | 60% | 1015.9 hPa | - | - | - | - |
| 1777934440 | 17.22° C | 60% | 1015.9 hPa | - | - | - | - |
| 1777933540 | 17.22° C | 60% | 1016 hPa | - | - | - | - |
| 1777932639 | 17.22° C | 60% | 1016 hPa | - | - | - | - |
| 1777931738 | 18.33° C | 59% | 1016.2 hPa | - | - | - | - |
| 1777931209 | 17.22° C | 59% | 1016.3 hPa | - | - | - | - |
| 1777930502 | -5° C | 100% | 4.8 hPa | - | - | - | - |
| 1777930308 | 17.78° C | 59% | 1016.4 hPa | - | - | - | - |
| 1777929407 | 17.78° C | 59% | 1016.5 hPa | - | - | - | - |
| 1777928506 | -5° C | 100% | 4.8 hPa | - | - | - | - |
| 1777928103 | 18.33° C | 59% | 1016.4 hPa | - | - | - | - |
| 1777927202 | 18.33° C | 59% | 1016.4 hPa | - | - | - | - |
| 1777926300 | 17.78° C | 59% | 1016 hPa | - | - | - | - |
| 1777925399 | 18.33° C | 59% | 1015.9 hPa | - | - | - | - |
| 1777922101 | 17.78° C | 59% | 1015.5 hPa | - | - | - | - |
| 1777921201 | 17.78° C | 59% | 1015.6 hPa | - | - | - | - |
| 1777920300 | 17.78° C | 58% | 1015.6 hPa | - | - | - | - |
| 1777919399 | -5° C | 100% | 4.8 hPa | - | - | - | - |
| 1777918992 | 18.33° C | 56% | 1015.4 hPa | - | - | - | - |
| 1777918092 | 18.33° C | 57% | 1015.5 hPa | - | - | - | - |
| 1777917191 | 18.89° C | 57% | 1015.4 hPa | - | - | - | - |
| 1777916290 | 18.89° C | 57% | 1015.4 hPa | - | - | - | - |
| 1777916013 | 18.89° C | 57% | 1015.5 hPa | - | - | - | - |
| 1777915112 | 18.33° C | 57% | 1015.3 hPa | - | - | - | - |
* Rain since midnight (hover to see other rain measurements)
** Current wind speed in m/s (hover to see current wind gust speed)